Time;durP1;ratioP1;P1;durP2;ratioP2;P2;SDS_P1;SDS_P2;PMS_P1;PMS_P2;Temp;Humidity;BMP_temperature;BMP_pressure;BME280_temperature;BME280_humidity;BME280_pressure;Samples;Min_cycle;Max_cycle;Signal;HPM_P1;HPM_P2
2023/03/25 00:01:19;;;;;;;28.35;18.20;;;;;;;;;;6307577;22;20012;-60
2023/03/25 00:03:49;;;;;;;28.00;17.70;;;;;;;;;;6307131;22;20069;-61
2023/03/25 00:06:17;;;;;;;27.42;16.25;;;;;;;;;;6307136;22;20015;-60
2023/03/25 00:08:45;;;;;;;24.50;16.17;;;;;;;;;;6306794;22;20046;-60
2023/03/25 00:11:12;;;;;;;29.40;16.83;;;;;;;;;;6307167;22;20015;-60
2023/03/25 00:13:41;;;;;;;26.95;17.10;;;;;;;;;;6306823;22;20016;-60
2023/03/25 00:16:09;;;;;;;26.25;17.15;;;;;;;;;;6307078;22;20072;-60
2023/03/25 00:18:36;;;;;;;23.25;16.15;;;;;;;;;;6306838;22;20022;-61
2023/03/25 00:21:09;;;;;;;26.23;17.25;;;;;;;;;;6280250;22;20020;-61
2023/03/25 00:23:37;;;;;;;26.48;16.98;;;;;;;;;;6307101;22;20384;-60
2023/03/25 00:26:05;;;;;;;26.90;16.38;;;;;;;;;;6307123;22;20019;-60
2023/03/25 00:28:35;;;;;;;24.50;16.52;;;;;;;;;;6307048;22;20015;-61
2023/03/25 00:31:04;;;;;;;24.42;16.23;;;;;;;;;;6307086;22;20019;-60
2023/03/25 00:33:34;;;;;;;29.45;18.02;;;;;;;;;;6279682;22;20616;-60
2023/03/25 00:36:03;;;;;;;23.63;15.82;;;;;;;;;;6279439;22;20376;-60
2023/03/25 00:38:33;;;;;;;24.73;16.98;;;;;;;;;;6306873;22;20016;-60
2023/03/25 00:41:16;;;;;;;24.20;16.70;;;;;;;;;;6306935;22;20072;-61
2023/03/25 00:43:44;;;;;;;24.67;16.33;;;;;;;;;;6279392;22;20076;-61
2023/03/25 00:46:12;;;;;;;26.15;16.40;;;;;;;;;;6254382;22;20077;-60
2023/03/25 00:48:40;;;;;;;27.90;17.00;;;;;;;;;;6307173;22;20457;-60
2023/03/25 00:51:08;;;;;;;24.85;16.20;;;;;;;;;;6306862;22;20118;-61
2023/03/25 00:53:37;;;;;;;24.73;16.08;;;;;;;;;;6279552;22;20030;-60
2023/03/25 00:56:05;;;;;;;23.77;16.63;;;;;;;;;;6279530;22;20023;-61
2023/03/25 00:58:32;;;;;;;25.52;17.52;;;;;;;;;;6279157;22;20015;-61
2023/03/25 01:01:01;;;;;;;27.15;17.70;;;;;;;;;;6306908;22;20076;-60
2023/03/25 01:03:29;;;;;;;24.30;16.20;;;;;;;;;;6306553;22;20057;-61
2023/03/25 01:05:56;;;;;;;26.02;17.50;;;;;;;;;;6279419;22;20098;-60
2023/03/25 01:08:24;;;;;;;24.50;17.45;;;;;;;;;;6279408;22;20060;-60
2023/03/25 01:10:55;;;;;;;27.05;17.55;;;;;;;;;;6306915;22;20396;-61
2023/03/25 01:13:23;;;;;;;26.05;17.13;;;;;;;;;;6279098;22;20020;-60
2023/03/25 01:15:50;;;;;;;29.13;17.27;;;;;;;;;;6279330;22;20030;-61
2023/03/25 01:18:18;;;;;;;27.75;16.75;;;;;;;;;;6279228;22;20437;-60
2023/03/25 01:20:45;;;;;;;28.08;18.75;;;;;;;;;;6279066;22;20023;-59
2023/03/25 01:23:13;;;;;;;27.83;17.75;;;;;;;;;;6279350;22;20039;-61
2023/03/25 01:25:40;;;;;;;28.55;17.75;;;;;;;;;;6306473;22;20499;-61
2023/03/25 01:28:08;;;;;;;25.48;17.10;;;;;;;;;;6306799;22;20022;-60
2023/03/25 01:30:35;;;;;;;25.77;17.23;;;;;;;;;;6307388;22;20048;-60
2023/03/25 01:33:03;;;;;;;31.08;17.35;;;;;;;;;;6281190;22;20560;-61
2023/03/25 01:35:30;;;;;;;27.17;16.58;;;;;;;;;;6308520;22;20464;-61
2023/03/25 01:37:58;;;;;;;24.27;16.45;;;;;;;;;;6281458;22;20050;-60
2023/03/25 01:40:26;;;;;;;26.13;16.77;;;;;;;;;;6280977;22;20027;-61
2023/03/25 01:42:53;;;;;;;24.45;16.40;;;;;;;;;;6280919;22;20675;-60
2023/03/25 01:45:34;;;;;;;24.77;16.73;;;;;;;;;;6281281;22;20524;-60
2023/03/25 01:48:05;;;;;;;24.50;16.58;;;;;;;;;;6281201;22;20023;-61
2023/03/25 01:50:36;;;;;;;24.70;16.95;;;;;;;;;;6280964;22;20026;-60
2023/03/25 01:53:04;;;;;;;28.83;17.70;;;;;;;;;;6308872;22;20021;-60
2023/03/25 01:55:33;;;;;;;25.00;16.60;;;;;;;;;;6280985;22;20019;-60
2023/03/25 01:58:03;;;;;;;25.25;17.13;;;;;;;;;;6280960;22;20317;-61
2023/03/25 02:00:31;;;;;;;25.23;16.00;;;;;;;;;;6280889;22;20069;-60
2023/03/25 02:03:01;;;;;;;24.92;16.80;;;;;;;;;;6280740;22;20531;-60
2023/03/25 02:05:52;;;;;;;27.98;16.83;;;;;;;;;;6280979;22;20023;-60
2023/03/25 02:08:21;;;;;;;29.48;17.25;;;;;;;;;;6266073;22;20507;-61
2023/03/25 02:10:49;;;;;;;33.03;16.60;;;;;;;;;;6280801;22;20011;-61
2023/03/25 02:13:16;;;;;;;26.92;17.35;;;;;;;;;;6280747;22;20096;-60
2023/03/25 02:15:57;;;;;;;26.98;16.75;;;;;;;;;;6307987;22;20015;-60
2023/03/25 02:18:47;;;;;;;27.63;17.90;;;;;;;;;;6308459;22;20015;-61
2023/03/25 02:21:24;;;;;;;28.50;18.00;;;;;;;;;;6308011;22;20069;-60
2023/03/25 02:24:01;;;;;;;28.85;17.70;;;;;;;;;;6307953;22;20076;-61
2023/03/25 02:26:44;;;;;;;32.65;18.70;;;;;;;;;;6280555;22;20372;-61
2023/03/25 02:29:32;;;;;;;33.22;19.33;;;;;;;;;;6280546;22;20084;-60
2023/03/25 02:32:00;;;;;;;27.38;18.27;;;;;;;;;;6280567;22;20030;-59
2023/03/25 02:34:38;;;;;;;27.95;17.58;;;;;;;;;;6280698;22;20020;-61
2023/03/25 02:37:21;;;;;;;24.73;17.10;;;;;;;;;;6280728;22;20047;-61
2023/03/25 02:39:58;;;;;;;28.52;17.30;;;;;;;;;;6280522;22;20376;-61
2023/03/25 02:42:53;;;;;;;30.52;16.83;;;;;;;;;;6280194;22;20085;-60
2023/03/25 02:45:44;;;;;;;28.55;17.10;;;;;;;;;;6276339;22;20038;-60
2023/03/25 02:48:32;;;;;;;25.95;16.80;;;;;;;;;;6307869;22;20026;-61
2023/03/25 02:51:01;;;;;;;26.83;16.70;;;;;;;;;;6280490;22;20039;-60
2023/03/25 02:53:32;;;;;;;27.15;16.83;;;;;;;;;;6307537;22;20034;-60
2023/03/25 02:56:01;;;;;;;28.17;18.23;;;;;;;;;;6280509;22;20015;-60
2023/03/25 02:58:30;;;;;;;27.67;17.85;;;;;;;;;;6280425;22;20012;-60
2023/03/25 03:00:57;;;;;;;31.02;18.42;;;;;;;;;;6280351;22;20046;-61
2023/03/25 03:03:26;;;;;;;29.02;17.75;;;;;;;;;;6307726;22;20011;-60
2023/03/25 03:05:59;;;;;;;28.63;18.33;;;;;;;;;;6280365;22;20027;-61
2023/03/25 03:08:26;;;;;;;29.13;17.73;;;;;;;;;;6280408;22;20072;-60
2023/03/25 03:11:12;;;;;;;30.70;18.48;;;;;;;;;;6307788;22;20018;-60
2023/03/25 03:14:06;;;;;;;33.75;19.08;;;;;;;;;;6307272;22;20019;-61
2023/03/25 03:16:33;;;;;;;43.83;21.95;;;;;;;;;;6261312;22;20049;-60
2023/03/25 03:19:16;;;;;;;77.38;31.67;;;;;;;;;;6307591;22;20046;-61
2023/03/25 03:21:50;;;;;;;74.00;31.42;;;;;;;;;;6307474;22;20026;-60
2023/03/25 03:24:24;;;;;;;91.45;35.10;;;;;;;;;;6307474;22;20073;-60
2023/03/25 03:27:04;;;;;;;79.47;31.38;;;;;;;;;;6307772;22;20124;-61
2023/03/25 03:29:35;;;;;;;60.38;27.35;;;;;;;;;;6307483;22;20015;-61
2023/03/25 03:32:08;;;;;;;50.00;25.25;;;;;;;;;;6307241;22;20011;-60
2023/03/25 03:35:00;;;;;;;49.42;23.77;;;;;;;;;;6307475;22;20445;-60
2023/03/25 03:37:31;;;;;;;43.40;22.33;;;;;;;;;;6307421;22;20487;-61
2023/03/25 03:39:58;;;;;;;44.28;22.92;;;;;;;;;;6307129;22;20506;-61
2023/03/25 03:42:26;;;;;;;45.47;23.67;;;;;;;;;;6307181;22;20015;-60
2023/03/25 03:44:55;;;;;;;29.70;18.45;;;;;;;;;;6307143;22;20015;-60
2023/03/25 03:47:25;;;;;;;27.88;18.20;;;;;;;;;;6307168;22;20022;-60
2023/03/25 03:49:55;;;;;;;27.20;17.73;;;;;;;;;;6280477;22;20072;-60
2023/03/25 03:52:25;;;;;;;27.50;17.63;;;;;;;;;;6306989;22;20011;-60
2023/03/25 03:54:56;;;;;;;27.05;18.27;;;;;;;;;;6307029;22;20020;-59
2023/03/25 03:57:29;;;;;;;28.60;17.75;;;;;;;;;;6307160;22;20012;-60
2023/03/25 04:00:03;;;;;;;29.25;18.52;;;;;;;;;;6307049;22;20337;-60
2023/03/25 04:02:38;;;;;;;27.15;17.58;;;;;;;;;;6307126;22;20026;-61
2023/03/25 04:05:07;;;;;;;28.60;18.95;;;;;;;;;;6307271;22;20086;-61
2023/03/25 04:07:43;;;;;;;25.98;18.02;;;;;;;;;;6307148;22;20022;-59
2023/03/25 04:10:14;;;;;;;29.17;18.73;;;;;;;;;;6307182;22;20019;-61
2023/03/25 04:12:46;;;;;;;34.25;20.02;;;;;;;;;;6306930;22;20034;-60
2023/03/25 04:15:14;;;;;;;30.55;19.05;;;;;;;;;;6307147;22;20015;-60
2023/03/25 04:17:42;;;;;;;34.78;21.20;;;;;;;;;;6307029;22;20011;-61
2023/03/25 04:20:14;;;;;;;29.73;20.40;;;;;;;;;;6306911;22;20050;-61
2023/03/25 04:22:44;;;;;;;32.58;20.38;;;;;;;;;;6306896;22;20086;-60
2023/03/25 04:25:12;;;;;;;32.90;20.33;;;;;;;;;;6307106;22;20019;-60
2023/03/25 04:27:40;;;;;;;31.25;20.10;;;;;;;;;;6306901;22;20015;-61
2023/03/25 04:30:08;;;;;;;31.60;20.08;;;;;;;;;;6279762;22;20464;-60
2023/03/25 04:32:36;;;;;;;30.85;20.52;;;;;;;;;;6306926;22;20015;-60
2023/03/25 04:35:03;;;;;;;32.10;21.15;;;;;;;;;;6306840;22;20022;-60
2023/03/25 04:37:32;;;;;;;31.00;19.70;;;;;;;;;;6306742;22;20077;-59
2023/03/25 04:40:00;;;;;;;28.98;18.42;;;;;;;;;;6306959;22;20030;-61
2023/03/25 04:42:31;;;;;;;34.88;20.48;;;;;;;;;;6306727;22;20041;-61
2023/03/25 04:44:59;;;;;;;28.05;18.92;;;;;;;;;;6306682;22;20076;-60
2023/03/25 04:47:27;;;;;;;28.95;18.05;;;;;;;;;;6279917;22;20015;-60
2023/03/25 04:49:55;;;;;;;27.15;18.17;;;;;;;;;;6306796;22;20428;-61
2023/03/25 04:52:22;;;;;;;29.40;18.85;;;;;;;;;;6306773;22;20069;-61
2023/03/25 04:54:50;;;;;;;26.38;18.17;;;;;;;;;;6307191;22;20088;-61
2023/03/25 04:57:17;;;;;;;27.05;18.50;;;;;;;;;;6306949;22;20011;-60
2023/03/25 04:59:45;;;;;;;30.88;20.17;;;;;;;;;;6306711;22;20019;-61
2023/03/25 05:02:13;;;;;;;26.73;18.17;;;;;;;;;;6306735;22;20086;-61
2023/03/25 05:04:41;;;;;;;30.15;18.98;;;;;;;;;;6307619;22;20066;-60
2023/03/25 05:07:09;;;;;;;25.85;18.27;;;;;;;;;;6309231;22;20368;-61
2023/03/25 05:09:37;;;;;;;25.42;17.50;;;;;;;;;;6308812;22;20019;-61
2023/03/25 05:12:04;;;;;;;25.33;17.27;;;;;;;;;;6308829;22;20015;-60
2023/03/25 05:14:31;;;;;;;25.70;16.75;;;;;;;;;;6308808;22;20011;-61
2023/03/25 05:16:59;;;;;;;29.40;17.88;;;;;;;;;;6308528;22;20019;-61
2023/03/25 05:19:27;;;;;;;21.42;16.10;;;;;;;;;;6308616;22;20515;-61
2023/03/25 05:21:55;;;;;;;22.95;16.40;;;;;;;;;;6308575;22;20015;-61
2023/03/25 05:24:22;;;;;;;23.45;16.83;;;;;;;;;;6308511;22;20318;-61
2023/03/25 05:26:50;;;;;;;21.45;17.05;;;;;;;;;;6308479;22;20095;-61
2023/03/25 05:29:18;;;;;;;23.67;17.30;;;;;;;;;;6308439;22;20011;-61
2023/03/25 05:31:47;;;;;;;21.60;16.60;;;;;;;;;;6308554;22;20011;-60
2023/03/25 05:34:15;;;;;;;27.45;17.48;;;;;;;;;;6308596;22;20015;-61
2023/03/25 05:36:43;;;;;;;27.40;18.23;;;;;;;;;;6308592;22;20094;-66
2023/03/25 05:39:11;;;;;;;23.45;18.77;;;;;;;;;;6308858;22;20333;-62
2023/03/25 05:41:39;;;;;;;22.55;16.80;;;;;;;;;;6307996;22;20019;-62
2023/03/25 05:44:07;;;;;;;18.73;15.82;;;;;;;;;;6308441;22;20038;-62
2023/03/25 05:46:34;;;;;;;18.63;16.13;;;;;;;;;;6308780;22;20114;-64
2023/03/25 05:49:02;;;;;;;18.65;16.05;;;;;;;;;;6281717;22;20094;-64
2023/03/25 05:51:36;;;;;;;22.08;16.90;;;;;;;;;;6308400;22;20019;-68
2023/03/25 05:54:09;;;;;;;26.02;18.95;;;;;;;;;;6308345;22;20043;-60
2023/03/25 05:56:38;;;;;;;28.00;18.90;;;;;;;;;;6308727;22;20022;-59
2023/03/25 05:59:06;;;;;;;30.98;19.25;;;;;;;;;;6308467;22;20026;-61
2023/03/25 06:01:36;;;;;;;27.10;19.45;;;;;;;;;;6308218;22;20019;-60
2023/03/25 06:04:04;;;;;;;24.10;19.75;;;;;;;;;;6307979;22;20019;-60
2023/03/25 06:06:32;;;;;;;20.95;17.20;;;;;;;;;;6308289;22;20015;-60
2023/03/25 06:09:01;;;;;;;22.35;15.90;;;;;;;;;;6308260;22;20072;-60
2023/03/25 06:11:28;;;;;;;18.33;15.35;;;;;;;;;;6308257;22;20016;-60
2023/03/25 06:13:56;;;;;;;21.17;16.08;;;;;;;;;;6308101;22;20019;-60
2023/03/25 06:16:28;;;;;;;21.23;16.80;;;;;;;;;;6307700;22;20019;-60
2023/03/25 06:18:59;;;;;;;15.10;13.50;;;;;;;;;;6307770;22;20023;-60
2023/03/25 06:21:34;;;;;;;14.73;13.23;;;;;;;;;;6280430;22;20047;-60
2023/03/25 06:24:01;;;;;;;19.90;13.90;;;;;;;;;;6308103;22;20015;-60
2023/03/25 06:26:31;;;;;;;14.48;13.02;;;;;;;;;;6308141;22;20464;-59
2023/03/25 06:29:01;;;;;;;19.20;14.20;;;;;;;;;;6280160;22;20383;-59
2023/03/25 06:31:32;;;;;;;15.38;13.82;;;;;;;;;;6307458;22;20019;-60
2023/03/25 06:34:00;;;;;;;15.95;13.35;;;;;;;;;;6307961;22;20015;-59
2023/03/25 06:36:28;;;;;;;14.63;13.13;;;;;;;;;;6307962;22;20015;-60
2023/03/25 06:38:57;;;;;;;15.63;13.65;;;;;;;;;;6307618;22;20076;-59
2023/03/25 06:41:25;;;;;;;15.18;13.68;;;;;;;;;;6279722;22;20074;-60
2023/03/25 06:44:16;;;;;;;20.58;14.23;;;;;;;;;;6279943;22;20380;-60
2023/03/25 06:47:23;;;;;;;20.38;14.63;;;;;;;;;;6239572;22;20050;-60
2023/03/25 06:49:50;;;;;;;17.52;14.98;;;;;;;;;;6281109;22;20380;-60
2023/03/25 06:52:18;;;;;;;22.55;17.05;;;;;;;;;;6307876;22;20095;-60
2023/03/25 06:54:45;;;;;;;21.33;15.50;;;;;;;;;;6307765;22;20018;-61
2023/03/25 06:57:13;;;;;;;20.65;15.10;;;;;;;;;;6307763;22;20015;-60
2023/03/25 06:59:40;;;;;;;18.92;14.63;;;;;;;;;;6307923;22;20018;-60
2023/03/25 07:02:09;;;;;;;19.17;15.25;;;;;;;;;;6307827;22;20043;-60
2023/03/25 07:04:36;;;;;;;23.15;16.02;;;;;;;;;;6307720;22;20034;-60
2023/03/25 07:07:04;;;;;;;23.10;15.90;;;;;;;;;;6307804;22;20015;-60
2023/03/25 07:09:31;;;;;;;21.23;15.82;;;;;;;;;;6305424;22;20043;-61
2023/03/25 07:12:00;;;;;;;18.83;15.65;;;;;;;;;;6305888;22;20019;-61
2023/03/25 07:14:27;;;;;;;17.08;15.25;;;;;;;;;;6306210;22;20015;-60
2023/03/25 07:16:55;;;;;;;15.95;14.23;;;;;;;;;;6280556;22;20085;-60
2023/03/25 07:19:22;;;;;;;25.65;14.50;;;;;;;;;;6307861;22;20039;-60
2023/03/25 07:21:50;;;;;;;16.20;14.50;;;;;;;;;;6307223;22;20019;-60
2023/03/25 07:24:17;;;;;;;17.05;13.60;;;;;;;;;;6280352;22;20105;-61
2023/03/25 07:26:45;;;;;;;14.13;12.60;;;;;;;;;;6307201;22;20082;-60
2023/03/25 07:29:15;;;;;;;16.13;13.43;;;;;;;;;;6280048;22;20094;-60
2023/03/25 07:31:42;;;;;;;17.27;13.88;;;;;;;;;;6307163;22;20027;-61
2023/03/25 07:34:10;;;;;;;16.33;14.63;;;;;;;;;;6307622;22;20021;-60
2023/03/25 07:36:37;;;;;;;16.75;12.65;;;;;;;;;;6279964;22;20019;-60
2023/03/25 07:39:06;;;;;;;17.08;12.90;;;;;;;;;;6306653;22;20436;-60
2023/03/25 07:41:34;;;;;;;14.25;12.75;;;;;;;;;;6278818;22;20019;-60
2023/03/25 07:44:11;;;;;;;17.42;13.32;;;;;;;;;;6279228;22;20098;-60
2023/03/25 07:46:38;;;;;;;17.42;13.70;;;;;;;;;;6279758;22;20144;-59
2023/03/25 07:49:06;;;;;;;18.02;13.35;;;;;;;;;;6307344;22;20035;-59
2023/03/25 07:51:33;;;;;;;16.30;12.73;;;;;;;;;;6306999;22;20019;-59
2023/03/25 07:54:01;;;;;;;17.05;12.10;;;;;;;;;;6306627;22;20015;-59
2023/03/25 07:56:32;;;;;;;15.55;11.15;;;;;;;;;;6305252;22;20019;-58
2023/03/25 07:59:00;;;;;;;15.48;11.23;;;;;;;;;;6278792;22;20461;-59
2023/03/25 08:01:27;;;;;;;15.02;11.27;;;;;;;;;;6306893;22;20061;-59
2023/03/25 08:03:55;;;;;;;15.25;11.10;;;;;;;;;;6306834;22;20047;-60
2023/03/25 08:06:22;;;;;;;16.05;11.95;;;;;;;;;;6306930;22;20113;-60
2023/03/25 08:08:50;;;;;;;15.48;11.60;;;;;;;;;;6305985;22;20345;-59
2023/03/25 08:11:17;;;;;;;16.08;11.45;;;;;;;;;;6306757;22;20060;-60
2023/03/25 08:13:45;;;;;;;16.27;11.82;;;;;;;;;;6306851;22;20012;-60
2023/03/25 08:16:13;;;;;;;14.85;12.10;;;;;;;;;;6306677;22;20023;-59
2023/03/25 08:18:43;;;;;;;17.80;11.43;;;;;;;;;;6279418;22;20388;-59
2023/03/25 08:21:12;;;;;;;15.45;11.68;;;;;;;;;;6307330;22;20337;-59
2023/03/25 08:23:39;;;;;;;17.58;12.00;;;;;;;;;;6307112;22;20338;-59
2023/03/25 08:26:07;;;;;;;16.98;11.75;;;;;;;;;;6306890;22;20065;-60
2023/03/25 08:28:34;;;;;;;16.70;12.43;;;;;;;;;;6307186;22;20011;-59
2023/03/25 08:31:05;;;;;;;18.95;11.73;;;;;;;;;;6306941;22;20015;-59
2023/03/25 08:33:38;;;;;;;20.90;12.10;;;;;;;;;;6306813;22;20022;-60
2023/03/25 08:36:08;;;;;;;21.20;12.82;;;;;;;;;;6306820;22;20023;-59
2023/03/25 08:38:36;;;;;;;17.15;12.52;;;;;;;;;;6306531;22;20468;-59
2023/03/25 08:41:04;;;;;;;17.40;12.23;;;;;;;;;;6305672;22;20026;-60
2023/03/25 08:43:31;;;;;;;15.82;12.52;;;;;;;;;;6306121;22;20086;-59
2023/03/25 08:45:59;;;;;;;17.90;12.15;;;;;;;;;;6306867;22;20035;-59
2023/03/25 08:48:26;;;;;;;12.88;10.38;;;;;;;;;;6305109;22;20090;-59
2023/03/25 08:50:54;;;;;;;16.02;10.75;;;;;;;;;;6305981;22;20047;-59
2023/03/25 08:53:21;;;;;;;15.40;11.18;;;;;;;;;;6305750;22;20015;-60
2023/03/25 08:55:55;;;;;;;13.77;10.70;;;;;;;;;;6305199;22;20073;-59
2023/03/25 08:58:23;;;;;;;13.88;10.73;;;;;;;;;;6305760;22;20519;-60
2023/03/25 09:00:55;;;;;;;12.85;11.13;;;;;;;;;;6307086;22;20018;-59
2023/03/25 09:03:23;;;;;;;14.60;12.15;;;;;;;;;;6306479;22;20094;-60
2023/03/25 09:05:51;;;;;;;16.05;12.30;;;;;;;;;;6306422;22;20348;-60
2023/03/25 09:08:19;;;;;;;19.13;11.95;;;;;;;;;;6279286;22;20039;-60
2023/03/25 09:10:46;;;;;;;14.38;11.65;;;;;;;;;;6305203;22;20076;-60
2023/03/25 09:13:14;;;;;;;15.68;11.45;;;;;;;;;;6306441;22;20015;-60
2023/03/25 09:15:41;;;;;;;17.08;11.50;;;;;;;;;;6305213;22;20117;-59
2023/03/25 09:18:09;;;;;;;15.55;11.32;;;;;;;;;;6306368;22;20086;-60
2023/03/25 09:20:36;;;;;;;13.45;11.60;;;;;;;;;;6306568;22;20221;-60
2023/03/25 09:23:04;;;;;;;15.30;11.80;;;;;;;;;;6306563;22;20516;-60
2023/03/25 09:25:32;;;;;;;16.83;11.65;;;;;;;;;;6306322;22;20015;-60
2023/03/25 09:27:59;;;;;;;16.88;11.52;;;;;;;;;;6306328;22;20026;-60
2023/03/25 09:30:26;;;;;;;13.88;10.48;;;;;;;;;;6306418;22;20018;-59
2023/03/25 09:32:54;;;;;;;16.17;11.43;;;;;;;;;;6306363;22;20094;-60
2023/03/25 09:35:21;;;;;;;13.90;11.18;;;;;;;;;;6306530;22;20318;-60
2023/03/25 09:37:49;;;;;;;14.80;12.00;;;;;;;;;;6305888;22;20023;-60
2023/03/25 09:40:20;;;;;;;15.93;12.10;;;;;;;;;;6306161;22;20011;-60
2023/03/25 09:43:10;;;;;;;14.82;11.93;;;;;;;;;;6306383;22;20341;-59
2023/03/25 09:45:48;;;;;;;24.30;12.20;;;;;;;;;;6287912;22;20019;-58
2023/03/25 09:48:25;;;;;;;16.88;12.48;;;;;;;;;;6305766;22;20015;-60
2023/03/25 09:50:53;;;;;;;16.80;12.43;;;;;;;;;;6305954;22;20015;-59
2023/03/25 09:53:39;;;;;;;15.70;11.98;;;;;;;;;;6307984;22;20019;-59
2023/03/25 09:56:10;;;;;;;15.35;12.35;;;;;;;;;;6308251;22;20015;-60
2023/03/25 09:58:41;;;;;;;14.68;12.20;;;;;;;;;;6307846;22;20821;-59
2023/03/25 10:01:19;;;;;;;14.65;10.63;;;;;;;;;;6306974;22;20019;-57
2023/03/25 10:04:17;;;;;;;16.67;12.48;;;;;;;;;;6307289;22;20469;-59
2023/03/25 10:07:17;;;;;;;17.00;12.10;;;;;;;;;;6251222;22;20023;-59
2023/03/25 10:09:56;;;;;;;15.02;11.02;;;;;;;;;;6240052;22;20042;-59
2023/03/25 10:12:26;;;;;;;13.65;10.88;;;;;;;;;;6308136;22;20449;-60
2023/03/25 10:15:03;;;;;;;15.77;11.18;;;;;;;;;;6306985;22;20019;-58
2023/03/25 10:17:31;;;;;;;15.15;10.82;;;;;;;;;;6307332;22;20015;-59
2023/03/25 10:19:58;;;;;;;14.93;11.43;;;;;;;;;;6307991;22;20011;-59
2023/03/25 10:22:40;;;;;;;12.80;11.02;;;;;;;;;;6307955;22;20019;-59
2023/03/25 10:25:17;;;;;;;14.60;11.65;;;;;;;;;;6307501;22;20011;-58
2023/03/25 10:27:48;;;;;;;14.23;10.50;;;;;;;;;;6307575;22;20065;-59
2023/03/25 10:30:16;;;;;;;12.50;9.63;;;;;;;;;;6307894;22;20030;-58
2023/03/25 10:32:50;;;;;;;14.30;9.10;;;;;;;;;;6307626;22;20103;-59
2023/03/25 10:35:20;;;;;;;11.15;8.02;;;;;;;;;;6307598;22;20015;-59
2023/03/25 10:37:50;;;;;;;17.42;11.50;;;;;;;;;;6307716;22;20079;-58
2023/03/25 10:40:18;;;;;;;10.63;8.00;;;;;;;;;;6307136;22;20019;-59
2023/03/25 10:42:56;;;;;;;9.20;7.25;;;;;;;;;;6307024;22;20042;-59
2023/03/25 10:45:24;;;;;;;12.00;8.07;;;;;;;;;;6307518;22;20023;-59
2023/03/25 10:47:54;;;;;;;8.50;7.10;;;;;;;;;;6307706;22;20015;-59
2023/03/25 10:50:22;;;;;;;8.80;7.90;;;;;;;;;;6307621;22;20433;-60
2023/03/25 10:52:51;;;;;;;10.90;6.70;;;;;;;;;;6306913;22;20046;-60
2023/03/25 10:55:24;;;;;;;9.13;6.82;;;;;;;;;;6305909;22;20019;-59
2023/03/25 10:57:53;;;;;;;11.57;8.35;;;;;;;;;;6306562;22;20498;-58
2023/03/25 11:00:23;;;;;;;10.40;7.78;;;;;;;;;;6306509;22;20012;-59
2023/03/25 11:02:51;;;;;;;9.77;7.90;;;;;;;;;;6307239;22;20346;-59
2023/03/25 11:05:20;;;;;;;8.18;6.22;;;;;;;;;;6307343;22;20015;-59
2023/03/25 11:07:53;;;;;;;7.68;5.88;;;;;;;;;;6307545;22;20015;-59
2023/03/25 11:10:24;;;;;;;9.65;6.13;;;;;;;;;;6307501;22;20012;-59
2023/03/25 11:12:52;;;;;;;8.82;6.32;;;;;;;;;;6307259;22;20345;-59
2023/03/25 11:15:22;;;;;;;9.18;5.65;;;;;;;;;;6307383;22;20012;-59
2023/03/25 11:18:05;;;;;;;8.15;5.20;;;;;;;;;;6307466;22;20055;-59
2023/03/25 11:20:38;;;;;;;5.85;4.32;;;;;;;;;;6307379;22;20027;-60
2023/03/25 11:23:07;;;;;;;8.23;5.22;;;;;;;;;;6306748;22;20259;-59
2023/03/25 11:25:40;;;;;;;9.07;5.20;;;;;;;;;;6306346;22;20467;-59
2023/03/25 11:28:31;;;;;;;12.48;5.03;;;;;;;;;;6306629;22;20018;-58
2023/03/25 11:31:07;;;;;;;7.85;5.43;;;;;;;;;;6306465;22;20045;-59
2023/03/25 11:33:36;;;;;;;8.77;6.20;;;;;;;;;;6306083;22;20045;-60
2023/03/25 11:36:16;;;;;;;13.98;7.20;;;;;;;;;;6305951;22;20046;-60
2023/03/25 11:38:46;;;;;;;8.70;5.47;;;;;;;;;;6306183;22;20019;-59
2023/03/25 11:41:14;;;;;;;6.88;5.10;;;;;;;;;;6278653;22;20019;-59
2023/03/25 11:43:41;;;;;;;8.80;5.35;;;;;;;;;;6306224;22;20019;-59
2023/03/25 11:46:16;;;;;;;6.55;5.05;;;;;;;;;;6306185;22;20049;-60
2023/03/25 11:48:45;;;;;;;8.15;5.20;;;;;;;;;;6306832;22;20094;-60
2023/03/25 11:51:14;;;;;;;8.40;6.07;;;;;;;;;;6306599;22;20042;-60
2023/03/25 11:53:46;;;;;;;7.80;6.30;;;;;;;;;;6305603;22;20019;-59
2023/03/25 11:56:19;;;;;;;7.38;5.93;;;;;;;;;;6306983;22;20183;-60
2023/03/25 11:58:47;;;;;;;9.52;6.18;;;;;;;;;;6306707;22;20026;-59
2023/03/25 12:01:17;;;;;;;10.30;6.43;;;;;;;;;;6307086;22;20015;-59
2023/03/25 12:03:45;;;;;;;7.70;6.53;;;;;;;;;;6306999;22;20015;-59
2023/03/25 12:06:18;;;;;;;10.30;7.68;;;;;;;;;;6306935;22;20015;-60
2023/03/25 12:09:12;;;;;;;8.57;6.82;;;;;;;;;;6279687;22;20042;-60
2023/03/25 12:11:48;;;;;;;8.70;6.80;;;;;;;;;;6303393;22;20034;-59
2023/03/25 12:14:15;;;;;;;12.93;7.32;;;;;;;;;;6306375;22;20015;-59
2023/03/25 12:16:43;;;;;;;7.88;6.10;;;;;;;;;;6279300;22;20014;-60
2023/03/25 12:19:16;;;;;;;9.82;6.20;;;;;;;;;;6306527;22;20042;-60
2023/03/25 12:21:44;;;;;;;8.10;6.40;;;;;;;;;;6306599;22;20291;-59
2023/03/25 12:24:17;;;;;;;10.20;7.15;;;;;;;;;;6305329;22;20019;-58
2023/03/25 12:26:46;;;;;;;8.07;5.85;;;;;;;;;;6278466;22;20376;-60
2023/03/25 12:29:22;;;;;;;13.55;7.82;;;;;;;;;;6306176;22;20068;-60
2023/03/25 12:32:08;;;;;;;8.23;6.45;;;;;;;;;;6306287;22;20111;-59
2023/03/25 12:34:42;;;;;;;10.82;6.93;;;;;;;;;;6305150;22;20086;-60
2023/03/25 12:37:23;;;;;;;9.57;6.55;;;;;;;;;;6278388;22;20460;-60
2023/03/25 12:40:00;;;;;;;12.10;7.50;;;;;;;;;;6305846;22;20493;-59
2023/03/25 12:42:37;;;;;;;11.20;6.97;;;;;;;;;;6305683;22;20019;-58
2023/03/25 12:45:24;;;;;;;12.93;7.03;;;;;;;;;;6306683;22;20015;-62
2023/03/25 12:47:52;;;;;;;15.05;6.50;;;;;;;;;;6306111;22;20019;-57
2023/03/25 12:50:19;;;;;;;11.75;6.90;;;;;;;;;;6305975;22;20065;-56
2023/03/25 12:52:52;;;;;;;9.43;7.07;;;;;;;;;;6306204;22;20624;-55
2023/03/25 12:55:40;;;;;;;185.02;158.75;;;;;;;;;;6306713;22;20418;-57
2023/03/25 12:58:26;;;;;;;12.93;8.07;;;;;;;;;;6245117;22;20023;-56
2023/03/25 13:00:56;;;;;;;10.18;6.68;;;;;;;;;;6306214;22;20022;-56
2023/03/25 13:03:24;;;;;;;10.70;7.15;;;;;;;;;;6306047;22;20020;-57
2023/03/25 13:06:10;;;;;;;12.40;7.60;;;;;;;;;;6305517;22;20022;-57
2023/03/25 13:08:51;;;;;;;12.57;7.70;;;;;;;;;;6305132;22;20012;-58
2023/03/25 13:11:31;;;;;;;13.50;8.35;;;;;;;;;;6306328;22;20018;-58
2023/03/25 13:14:01;;;;;;;12.85;8.23;;;;;;;;;;6305851;22;20015;-55
2023/03/25 13:16:30;;;;;;;14.60;9.05;;;;;;;;;;6306249;22;20453;-56
2023/03/25 13:19:10;;;;;;;14.85;11.18;;;;;;;;;;6306094;22;20029;-57
2023/03/25 13:21:44;;;;;;;11.40;8.93;;;;;;;;;;6306483;22;20011;-57
2023/03/25 13:24:19;;;;;;;11.73;8.25;;;;;;;;;;6306262;22;20011;-56
2023/03/25 13:26:48;;;;;;;11.10;7.35;;;;;;;;;;6307848;22;20311;-55
2023/03/25 13:29:23;;;;;;;11.45;6.60;;;;;;;;;;6308219;22;20082;-57
2023/03/25 13:31:52;;;;;;;8.75;6.18;;;;;;;;;;6308219;22;20088;-57
2023/03/25 13:34:21;;;;;;;14.45;9.75;;;;;;;;;;6308037;22;20016;-56
2023/03/25 13:37:09;;;;;;;27.25;18.73;;;;;;;;;;6308184;22;20392;-57
2023/03/25 13:39:53;;;;;;;12.77;6.93;;;;;;;;;;6287791;22;20061;-56
2023/03/25 13:42:44;;;;;;;23.30;16.10;;;;;;;;;;6307825;22;20015;-57
2023/03/25 13:45:19;;;;;;;17.48;12.80;;;;;;;;;;6251971;22;20023;-56
2023/03/25 13:47:46;;;;;;;;;;;;;;;;;;6281360;22;20082;-57
2023/03/25 13:50:17;;;;;;;11.77;6.35;;;;;;;;;;6308246;22;20012;-57
2023/03/25 13:52:48;;;;;;;19.67;11.55;;;;;;;;;;6307710;22;20579;-56
2023/03/25 13:55:18;;;;;;;15.73;10.57;;;;;;;;;;6307514;22;20019;-56
2023/03/25 13:58:04;;;;;;;10.38;5.07;;;;;;;;;;6280397;22;20026;-57
2023/03/25 14:00:50;;;;;;;8.70;5.20;;;;;;;;;;6307954;22;20019;-56
2023/03/25 14:03:32;;;;;;;12.35;4.97;;;;;;;;;;6307979;22;20015;-57
2023/03/25 14:06:06;;;;;;;9.18;3.63;;;;;;;;;;6307755;22;20019;-56
2023/03/25 14:08:52;;;;;;;10.60;5.00;;;;;;;;;;6280436;22;20025;-56
2023/03/25 14:11:28;;;;;;;17.83;10.40;;;;;;;;;;6308124;22;20023;-57
2023/03/25 14:13:58;;;;;;;7.90;5.50;;;;;;;;;;6307936;22;20029;-52
2023/03/25 14:16:30;;;;;;;8.05;5.55;;;;;;;;;;6307488;22;20093;-57
2023/03/25 14:19:06;;;;;;;7.75;4.50;;;;;;;;;;6307528;22;20019;-58
2023/03/25 14:21:47;;;;;;;128.45;94.90;;;;;;;;;;6307452;22;20026;-53
2023/03/25 14:24:26;;;;;;;12.48;8.20;;;;;;;;;;6307290;22;20073;-57
2023/03/25 14:26:56;;;;;;;13.77;8.50;;;;;;;;;;6307307;22;20015;-55
2023/03/25 14:29:32;;;;;;;12.27;7.80;;;;;;;;;;6307181;22;20136;-57
2023/03/25 14:32:22;;;;;;;9.50;6.88;;;;;;;;;;6307236;22;20353;-57
2023/03/25 14:34:50;;;;;;;39.15;30.00;;;;;;;;;;6280012;22;20019;-56
2023/03/25 14:37:17;;;;;;;13.13;9.70;;;;;;;;;;6306736;22;20069;-55
2023/03/25 14:39:45;;;;;;;12.77;9.50;;;;;;;;;;6279623;22;20018;-56
2023/03/25 14:42:27;;;;;;;12.77;9.38;;;;;;;;;;6306872;22;20388;-56
2023/03/25 14:45:15;;;;;;;13.95;9.25;;;;;;;;;;6306598;22;20016;-56
2023/03/25 14:47:52;;;;;;;34.72;19.88;;;;;;;;;;6306739;22;20019;-54